createdAt,value
2023-02-08T00:00:21.764Z,-1.87
2023-02-08T00:05:46.039Z,-1.85
2023-02-08T00:10:49.989Z,-1.83
2023-02-08T00:15:55.954Z,-1.83
2023-02-08T00:21:00.093Z,-1.82
2023-02-08T00:26:04.142Z,-1.80
2023-02-08T00:31:08.551Z,-1.78
2023-02-08T00:36:12.674Z,-1.76
2023-02-08T00:41:18.597Z,-1.74
2023-02-08T00:46:25.427Z,-1.73
2023-02-08T00:51:32.256Z,-1.72
2023-02-08T00:56:36.032Z,-1.70
2023-02-08T01:01:41.080Z,-1.72
2023-02-08T01:06:47.961Z,-1.74
2023-02-08T01:11:52.344Z,-1.74
2023-02-08T01:16:56.374Z,-1.76
2023-02-08T01:22:27.329Z,-1.77
2023-02-08T01:27:35.781Z,-1.77
2023-02-08T01:32:39.757Z,-1.78
2023-02-08T01:37:43.517Z,-1.78
2023-02-08T01:42:47.233Z,-1.77
2023-02-08T01:47:59.715Z,-1.75
2023-02-08T01:53:03.683Z,-1.73
2023-02-08T01:58:11.122Z,-1.71
2023-02-08T02:03:19.454Z,-1.70
2023-02-08T02:08:26.826Z,-1.66
2023-02-08T02:13:34.762Z,-1.66
2023-02-08T02:18:41.809Z,-1.69
2023-02-08T02:24:26.533Z,-1.70
2023-02-08T02:29:53.279Z,-1.70
2023-02-08T02:35:26.188Z,-1.70
2023-02-08T02:41:12.547Z,-1.66
2023-02-08T02:46:29.053Z,-1.64
2023-02-08T02:51:44.326Z,-1.63
2023-02-08T02:56:50.859Z,-1.62
2023-02-08T03:01:58.495Z,-1.64
2023-02-08T03:07:34.506Z,-1.64
2023-02-08T03:13:24.370Z,-1.64
2023-02-08T03:18:49.195Z,-1.65
2023-02-08T03:24:19.751Z,-1.66
2023-02-08T03:29:49.431Z,-1.65
2023-02-08T03:35:42.088Z,-1.64
2023-02-08T03:40:59.445Z,-1.70
2023-02-08T03:46:34.446Z,-1.71
2023-02-08T03:51:44.036Z,-1.71
2023-02-08T03:57:22.961Z,-1.70
2023-02-08T04:02:29.981Z,-1.74
2023-02-08T04:07:37.887Z,-1.77
2023-02-08T04:12:44.601Z,-1.75
2023-02-08T04:17:48.440Z,-1.72
2023-02-08T04:23:10.116Z,-1.71
2023-02-08T04:28:14.455Z,-1.67
2023-02-08T04:33:18.201Z,-1.66
2023-02-08T04:38:22.457Z,-1.66
2023-02-08T04:43:28.497Z,-1.63
2023-02-08T04:48:32.743Z,-1.64
2023-02-08T04:53:36.520Z,-1.63
2023-02-08T04:58:43.321Z,-1.60
2023-02-08T05:03:47.884Z,-1.60
2023-02-08T05:08:52.081Z,-1.58
2023-02-08T05:13:59.971Z,-1.60
2023-02-08T05:19:04.991Z,-1.62
2023-02-08T05:24:31.590Z,-1.71
2023-02-08T05:29:41.497Z,-1.87
2023-02-08T05:34:48.157Z,-2.04
2023-02-08T05:39:51.857Z,-2.23
2023-02-08T05:44:56.223Z,-2.44
2023-02-08T05:49:59.911Z,-2.58
2023-02-08T05:55:04.296Z,-2.86
2023-02-08T06:00:09.643Z,-3.06
2023-02-08T06:05:19.827Z,-3.15
2023-02-08T06:10:23.645Z,-3.23
2023-02-08T06:15:27.896Z,-3.37
2023-02-08T06:20:31.722Z,-3.40
2023-02-08T06:25:35.432Z,-3.43
2023-02-08T06:30:39.558Z,-3.42
2023-02-08T06:35:47.505Z,-3.43
2023-02-08T06:40:51.308Z,-3.49
2023-02-08T06:45:55.127Z,-3.55
2023-02-08T06:50:58.955Z,-3.59
2023-02-08T06:56:02.709Z,-3.61
2023-02-08T07:01:06.897Z,-3.68
2023-02-08T07:06:17.560Z,-3.77
2023-02-08T07:11:22.276Z,-3.78
2023-02-08T07:16:25.972Z,-3.70
2023-02-08T07:21:30.588Z,-3.56
2023-02-08T07:26:34.987Z,-3.43
2023-02-08T07:31:38.960Z,-3.26
2023-02-08T07:36:42.587Z,-3.07
2023-02-08T07:41:46.695Z,-2.88
2023-02-08T07:46:50.397Z,-2.70
2023-02-08T07:51:54.198Z,-2.54
2023-02-08T07:56:57.976Z,-2.37
2023-02-08T08:02:01.604Z,-2.19
2023-02-08T08:07:05.933Z,-1.98
2023-02-08T08:12:10.010Z,-1.76
2023-02-08T08:17:13.681Z,-1.56
2023-02-08T08:22:17.369Z,-1.37
2023-02-08T08:27:20.874Z,-1.16
2023-02-08T08:32:24.553Z,-0.98
2023-02-08T08:37:28.271Z,-0.88
2023-02-08T08:42:32.512Z,-0.77
2023-02-08T08:47:36.384Z,-0.64
2023-02-08T08:52:40.633Z,-0.52
2023-02-08T08:57:45.567Z,-0.35
2023-02-08T09:02:49.646Z,-0.21
2023-02-08T09:07:53.869Z,-0.13
2023-02-08T09:12:58.782Z,-0.09
2023-02-08T09:18:03.364Z,0.03
2023-02-08T09:23:06.977Z,0.13
2023-02-08T09:28:10.635Z,0.25
2023-02-08T09:33:14.308Z,0.37
2023-02-08T09:38:18.004Z,0.35
2023-02-08T09:43:54.778Z,0.38
2023-02-08T09:49:01.666Z,0.41
2023-02-08T09:54:35.805Z,0.46
2023-02-08T09:59:41.115Z,0.47
2023-02-08T10:05:16.940Z,0.50
2023-02-08T10:10:30.017Z,0.56
2023-02-08T10:16:02.272Z,0.59
2023-02-08T10:21:47.456Z,0.54
2023-02-08T10:26:53.785Z,0.57
2023-02-08T10:32:21.042Z,0.59
2023-02-08T10:37:35.667Z,0.58
2023-02-08T10:42:40.865Z,0.48
2023-02-08T10:47:58.417Z,0.45
2023-02-08T10:53:03.019Z,0.52
2023-02-08T10:58:15.119Z,0.66
2023-02-08T11:03:27.009Z,0.80
2023-02-08T11:08:30.734Z,0.94
2023-02-08T11:13:40.175Z,1.05
2023-02-08T11:18:59.174Z,1.05
2023-02-08T11:24:26.438Z,1.00
2023-02-08T11:29:32.284Z,1.07
2023-02-08T11:34:39.111Z,1.25
2023-02-08T11:40:14.371Z,1.42
2023-02-08T11:45:26.981Z,1.53
2023-02-08T11:50:33.706Z,1.72
2023-02-08T11:55:37.443Z,1.83
2023-02-08T12:00:41.799Z,2.00
2023-02-08T12:06:12.031Z,1.91
2023-02-08T12:11:48.901Z,1.75
2023-02-08T12:17:34.380Z,1.76
2023-02-08T12:22:42.724Z,1.62
2023-02-08T12:28:25.451Z,1.57
2023-02-08T12:33:57.868Z,1.62
2023-02-08T12:39:51.507Z,1.73
2023-02-08T12:45:54.931Z,1.68
2023-02-08T12:51:18.772Z,1.68
2023-02-08T12:56:37.916Z,1.67
2023-02-08T13:01:44.654Z,1.67
2023-02-08T13:06:52.395Z,1.63
2023-02-08T13:12:00.734Z,1.54
2023-02-08T13:17:32.062Z,1.39
2023-02-08T13:22:40.551Z,1.31
2023-02-08T13:27:44.856Z,1.44
2023-02-08T13:32:51.789Z,1.49
2023-02-08T13:38:05.604Z,1.38
2023-02-08T13:43:34.791Z,1.29
2023-02-08T13:48:55.317Z,1.25
2023-02-08T13:54:19.094Z,1.33
2023-02-08T13:59:35.583Z,1.38
2023-02-08T14:04:40.826Z,1.42
2023-02-08T14:09:46.748Z,1.43
2023-02-08T14:15:29.216Z,1.54
2023-02-08T14:20:42.463Z,1.57
2023-02-08T14:25:47.976Z,1.35
2023-02-08T14:30:55.040Z,1.13
2023-02-08T14:36:06.251Z,0.91
2023-02-08T14:41:16.830Z,0.78
2023-02-08T14:46:59.598Z,0.72
2023-02-08T14:52:09.979Z,0.63
2023-02-08T14:57:35.133Z,0.60
2023-02-08T15:02:42.156Z,0.51
2023-02-08T15:07:52.640Z,0.42
2023-02-08T15:13:04.073Z,0.33
2023-02-08T15:18:20.012Z,0.21
2023-02-08T15:23:27.264Z,0.11
2023-02-08T15:28:35.237Z,0.02
2023-02-08T15:33:41.178Z,-0.08
2023-02-08T15:38:45.255Z,-0.23
2023-02-08T15:43:48.974Z,-0.39
2023-02-08T15:48:53.781Z,-0.55
2023-02-08T15:53:57.770Z,-0.70
2023-02-08T15:59:03.612Z,-0.84
2023-02-08T16:04:14.610Z,-0.97
2023-02-08T16:09:26.570Z,-1.11
2023-02-08T16:14:47.154Z,-1.25
2023-02-08T16:19:58.539Z,-1.44
2023-02-08T16:25:36.991Z,-1.60
2023-02-08T16:30:46.263Z,-1.73
2023-02-08T16:35:56.878Z,-1.82
2023-02-08T16:41:14.682Z,-1.96
2023-02-08T16:46:24.785Z,-2.10
2023-02-08T16:51:43.736Z,-2.15
2023-02-08T16:56:51.645Z,-2.22
2023-02-08T17:01:58.386Z,-2.38
2023-02-08T17:07:03.898Z,-2.51
2023-02-08T17:12:21.960Z,-2.57
2023-02-08T17:17:27.845Z,-2.64
2023-02-08T17:22:31.493Z,-2.71
2023-02-08T17:27:36.117Z,-2.73
2023-02-08T17:32:40.663Z,-2.68
2023-02-08T17:37:47.989Z,-2.66
2023-02-08T17:42:54.638Z,-2.67
2023-02-08T17:48:02.560Z,-2.70
2023-02-08T17:53:07.826Z,-2.72
2023-02-08T17:58:20.071Z,-2.75
2023-02-08T18:03:45.382Z,-2.80
2023-02-08T18:08:53.731Z,-2.84
2023-02-08T18:14:05.091Z,-2.84
2023-02-08T18:19:10.644Z,-2.81
2023-02-08T18:24:17.934Z,-2.81
2023-02-08T18:29:24.363Z,-2.85
2023-02-08T18:34:31.084Z,-2.90
2023-02-08T18:39:38.674Z,-2.92
2023-02-08T18:44:44.614Z,-2.93
2023-02-08T18:49:56.377Z,-2.94
2023-02-08T18:55:03.089Z,-2.96
2023-02-08T19:00:10.673Z,-2.97
2023-02-08T19:05:21.673Z,-3.00
2023-02-08T19:10:29.000Z,-2.98
2023-02-08T19:15:38.463Z,-2.97
2023-02-08T19:20:50.360Z,-2.96
2023-02-08T19:26:09.226Z,-2.96
2023-02-08T19:31:19.582Z,-2.98
2023-02-08T19:36:31.147Z,-3.00
2023-02-08T19:41:39.884Z,-3.00
2023-02-08T19:46:49.181Z,-2.99
2023-02-08T19:51:56.825Z,-2.98
2023-02-08T19:57:01.544Z,-2.99
2023-02-08T20:02:07.871Z,-3.02
2023-02-08T20:07:12.234Z,-3.13
2023-02-08T20:12:18.685Z,-3.19
2023-02-08T20:17:23.906Z,-3.20
2023-02-08T20:22:30.318Z,-3.28
2023-02-08T20:27:40.408Z,-3.35
2023-02-08T20:32:45.763Z,-3.36
2023-02-08T20:37:52.544Z,-3.38
2023-02-08T20:42:57.976Z,-3.44
2023-02-08T20:48:03.592Z,-3.54
2023-02-08T20:53:09.172Z,-3.60
2023-02-08T20:58:14.202Z,-3.63
2023-02-08T21:03:27.054Z,-3.70
2023-02-08T21:08:37.055Z,-3.81
2023-02-08T21:13:41.477Z,-3.89
2023-02-08T21:18:57.599Z,-3.92
2023-02-08T21:24:06.359Z,-3.96
2023-02-08T21:29:11.267Z,-4.01
2023-02-08T21:34:15.287Z,-4.07
2023-02-08T21:39:20.344Z,-4.08
2023-02-08T21:44:27.975Z,-4.05
2023-02-08T21:49:53.226Z,-4.03
2023-02-08T21:55:09.919Z,-4.04
2023-02-08T22:00:20.166Z,-4.09
2023-02-08T22:05:23.949Z,-4.15
2023-02-08T22:10:34.425Z,-4.21
2023-02-08T22:15:42.528Z,-4.27
2023-02-08T22:20:46.394Z,-4.33
2023-02-08T22:25:51.503Z,-4.39
2023-02-08T22:31:08.173Z,-4.46
2023-02-08T22:36:14.149Z,-4.50
2023-02-08T22:41:18.724Z,-4.48
2023-02-08T22:46:25.190Z,-4.48
2023-02-08T22:51:30.808Z,-4.47
2023-02-08T22:56:36.920Z,-4.47
2023-02-08T23:01:40.540Z,-4.48
2023-02-08T23:06:47.699Z,-4.51
2023-02-08T23:11:58.044Z,-4.55
2023-02-08T23:17:02.158Z,-4.59
2023-02-08T23:22:05.761Z,-4.63
2023-02-08T23:27:09.503Z,-4.67
2023-02-08T23:32:13.912Z,-4.72
2023-02-08T23:37:17.730Z,-4.74
2023-02-08T23:42:28.342Z,-4.78
2023-02-08T23:47:39.526Z,-4.84
2023-02-08T23:52:43.379Z,-4.90
2023-02-08T23:57:46.961Z,-4.96
